sensor_id;sensor_type;location;lat;lon;timestamp;pressure;altitude;pressure_sealevel;temperature;humidity
19096;BME280;9680;52.520;13.332;2022-07-09T00:01:51;102176.72;;;15.87;68.77
19096;BME280;9680;52.520;13.332;2022-07-09T00:04:16;102180.31;;;15.85;69.29
19096;BME280;9680;52.520;13.332;2022-07-09T00:06:42;102183.16;;;15.79;69.01
19096;BME280;9680;52.520;13.332;2022-07-09T00:09:07;102189.44;;;15.75;69.24
19096;BME280;9680;52.520;13.332;2022-07-09T00:11:33;102186.06;;;15.71;69.30
19096;BME280;9680;52.520;13.332;2022-07-09T00:13:58;102180.19;;;15.64;69.54
19096;BME280;9680;52.520;13.332;2022-07-09T00:16:24;102178.50;;;15.63;69.60
19096;BME280;9680;52.520;13.332;2022-07-09T00:18:50;102184.00;;;15.55;70.18
19096;BME280;9680;52.520;13.332;2022-07-09T00:21:15;102188.47;;;15.53;69.89
19096;BME280;9680;52.520;13.332;2022-07-09T00:23:41;102181.16;;;15.62;70.44
19096;BME280;9680;52.520;13.332;2022-07-09T00:26:06;102185.56;;;15.61;70.07
19096;BME280;9680;52.520;13.332;2022-07-09T00:28:32;102183.13;;;15.55;69.75
19096;BME280;9680;52.520;13.332;2022-07-09T00:30:57;102178.28;;;15.44;70.11
19096;BME280;9680;52.520;13.332;2022-07-09T00:33:22;102188.13;;;15.37;70.49
19096;BME280;9680;52.520;13.332;2022-07-09T00:35:48;102183.91;;;15.33;70.67
19096;BME280;9680;52.520;13.332;2022-07-09T00:38:13;102187.72;;;15.24;70.76
19096;BME280;9680;52.520;13.332;2022-07-09T00:40:39;102193.03;;;15.23;71.15
19096;BME280;9680;52.520;13.332;2022-07-09T00:43:17;102195.38;;;15.31;71.22
19096;BME280;9680;52.520;13.332;2022-07-09T00:45:44;102192.75;;;15.31;71.05
19096;BME280;9680;52.520;13.332;2022-07-09T00:48:10;102186.84;;;15.24;71.00
19096;BME280;9680;52.520;13.332;2022-07-09T00:50:36;102188.69;;;15.22;71.48
19096;BME280;9680;52.520;13.332;2022-07-09T00:53:02;102183.53;;;15.19;71.51
19096;BME280;9680;52.520;13.332;2022-07-09T00:55:27;102181.94;;;15.14;71.91
19096;BME280;9680;52.520;13.332;2022-07-09T00:57:54;102191.66;;;15.11;71.65
19096;BME280;9680;52.520;13.332;2022-07-09T01:00:20;102189.00;;;15.12;72.25
19096;BME280;9680;52.520;13.332;2022-07-09T01:02:47;102188.34;;;15.06;72.28
19096;BME280;9680;52.520;13.332;2022-07-09T01:05:14;102181.59;;;14.98;72.21
19096;BME280;9680;52.520;13.332;2022-07-09T01:07:40;102190.53;;;14.93;72.77
19096;BME280;9680;52.520;13.332;2022-07-09T01:10:06;102179.38;;;14.86;73.23
19096;BME280;9680;52.520;13.332;2022-07-09T01:12:32;102180.28;;;14.85;73.16
19096;BME280;9680;52.520;13.332;2022-07-09T01:14:57;102182.03;;;14.84;73.05
19096;BME280;9680;52.520;13.332;2022-07-09T01:17:23;102184.84;;;14.80;73.51
19096;BME280;9680;52.520;13.332;2022-07-09T01:19:48;102189.38;;;14.75;73.86
19096;BME280;9680;52.520;13.332;2022-07-09T01:22:14;102185.22;;;14.66;74.44
19096;BME280;9680;52.520;13.332;2022-07-09T01:24:40;102178.38;;;14.62;74.33
19096;BME280;9680;52.520;13.332;2022-07-09T01:27:06;102176.88;;;14.54;74.77
19096;BME280;9680;52.520;13.332;2022-07-09T01:29:32;102176.09;;;14.51;74.51
19096;BME280;9680;52.520;13.332;2022-07-09T01:31:57;102168.22;;;14.51;74.93
19096;BME280;9680;52.520;13.332;2022-07-09T01:34:23;102164.78;;;14.49;74.74
19096;BME280;9680;52.520;13.332;2022-07-09T01:36:48;102164.06;;;14.45;74.80
19096;BME280;9680;52.520;13.332;2022-07-09T01:39:14;102158.84;;;14.44;75.35
19096;BME280;9680;52.520;13.332;2022-07-09T01:41:39;102157.94;;;14.45;75.72
19096;BME280;9680;52.520;13.332;2022-07-09T01:44:05;102162.06;;;14.52;75.52
19096;BME280;9680;52.520;13.332;2022-07-09T01:46:32;102159.44;;;14.52;75.23
19096;BME280;9680;52.520;13.332;2022-07-09T01:48:57;102154.38;;;14.47;75.43
19096;BME280;9680;52.520;13.332;2022-07-09T01:51:23;102155.22;;;14.48;75.37
19096;BME280;9680;52.520;13.332;2022-07-09T01:53:48;102159.66;;;14.46;75.59
19096;BME280;9680;52.520;13.332;2022-07-09T01:56:14;102157.38;;;14.35;75.80
19096;BME280;9680;52.520;13.332;2022-07-09T01:58:39;102143.69;;;14.25;76.37
19096;BME280;9680;52.520;13.332;2022-07-09T02:01:05;102148.16;;;14.21;76.35
19096;BME280;9680;52.520;13.332;2022-07-09T02:03:31;102145.69;;;14.17;76.70
19096;BME280;9680;52.520;13.332;2022-07-09T02:05:57;102139.78;;;14.10;76.91
19096;BME280;9680;52.520;13.332;2022-07-09T02:08:22;102138.41;;;13.98;77.47
19096;BME280;9680;52.520;13.332;2022-07-09T02:10:49;102142.09;;;13.91;78.39
19096;BME280;9680;52.520;13.332;2022-07-09T02:13:15;102138.72;;;13.87;78.06
19096;BME280;9680;52.520;13.332;2022-07-09T02:15:40;102126.63;;;13.83;78.62
19096;BME280;9680;52.520;13.332;2022-07-09T02:18:06;102129.34;;;13.80;78.36
19096;BME280;9680;52.520;13.332;2022-07-09T02:20:31;102119.84;;;13.76;78.54
19096;BME280;9680;52.520;13.332;2022-07-09T02:22:57;102131.22;;;13.75;78.74
19096;BME280;9680;52.520;13.332;2022-07-09T02:25:23;102135.66;;;13.73;78.56
19096;BME280;9680;52.520;13.332;2022-07-09T02:27:48;102134.88;;;13.69;78.95
19096;BME280;9680;52.520;13.332;2022-07-09T02:30:14;102131.41;;;13.68;79.22
19096;BME280;9680;52.520;13.332;2022-07-09T02:32:40;102134.69;;;13.75;79.39
19096;BME280;9680;52.520;13.332;2022-07-09T02:35:06;102129.25;;;13.81;79.30
19096;BME280;9680;52.520;13.332;2022-07-09T02:37:32;102137.75;;;13.90;78.85
19096;BME280;9680;52.520;13.332;2022-07-09T02:39:58;102126.25;;;13.95;78.85
19096;BME280;9680;52.520;13.332;2022-07-09T02:42:23;102137.97;;;14.12;78.20
19096;BME280;9680;52.520;13.332;2022-07-09T02:44:49;102130.81;;;14.17;77.74
19096;BME280;9680;52.520;13.332;2022-07-09T02:47:15;102126.34;;;14.21;76.96
19096;BME280;9680;52.520;13.332;2022-07-09T02:49:40;102125.47;;;14.20;76.87
19096;BME280;9680;52.520;13.332;2022-07-09T02:52:06;102133.19;;;14.26;76.43
19096;BME280;9680;52.520;13.332;2022-07-09T02:54:32;102131.53;;;14.22;76.62
19096;BME280;9680;52.520;13.332;2022-07-09T02:56:59;102132.09;;;14.34;76.26
19096;BME280;9680;52.520;13.332;2022-07-09T02:59:25;102137.25;;;14.35;75.85
19096;BME280;9680;52.520;13.332;2022-07-09T03:01:51;102132.81;;;14.37;75.55
19096;BME280;9680;52.520;13.332;2022-07-09T03:04:16;102136.22;;;14.41;75.23
19096;BME280;9680;52.520;13.332;2022-07-09T03:06:42;102134.50;;;14.40;75.31
19096;BME280;9680;52.520;13.332;2022-07-09T03:09:08;102138.63;;;14.47;75.13
19096;BME280;9680;52.520;13.332;2022-07-09T03:11:33;102141.25;;;14.47;74.82
19096;BME280;9680;52.520;13.332;2022-07-09T03:13:59;102145.50;;;14.51;75.13
19096;BME280;9680;52.520;13.332;2022-07-09T03:16:25;102153.47;;;14.48;75.03
19096;BME280;9680;52.520;13.332;2022-07-09T03:18:50;102148.06;;;14.53;75.02
19096;BME280;9680;52.520;13.332;2022-07-09T03:21:15;102149.63;;;14.59;74.61
19096;BME280;9680;52.520;13.332;2022-07-09T03:23:41;102145.09;;;14.64;74.74
19096;BME280;9680;52.520;13.332;2022-07-09T03:26:07;102148.59;;;14.64;74.31
19096;BME280;9680;52.520;13.332;2022-07-09T03:28:33;102154.75;;;14.63;73.85
19096;BME280;9680;52.520;13.332;2022-07-09T03:30:59;102152.22;;;14.60;74.18
19096;BME280;9680;52.520;13.332;2022-07-09T03:33:25;102158.28;;;14.62;74.36
19096;BME280;9680;52.520;13.332;2022-07-09T03:35:53;102160.66;;;14.70;74.44
19096;BME280;9680;52.520;13.332;2022-07-09T03:38:18;102162.84;;;14.84;74.35
19096;BME280;9680;52.520;13.332;2022-07-09T03:40:44;102150.63;;;14.83;73.67
19096;BME280;9680;52.520;13.332;2022-07-09T03:43:09;102143.66;;;14.82;73.03
19096;BME280;9680;52.520;13.332;2022-07-09T03:45:35;102156.22;;;14.72;73.04
19096;BME280;9680;52.520;13.332;2022-07-09T03:48:00;102147.56;;;14.68;73.38
19096;BME280;9680;52.520;13.332;2022-07-09T03:50:26;102150.06;;;14.73;73.49
19096;BME280;9680;52.520;13.332;2022-07-09T03:52:51;102143.78;;;14.79;73.30
19096;BME280;9680;52.520;13.332;2022-07-09T03:55:17;102130.38;;;14.87;73.29
19096;BME280;9680;52.520;13.332;2022-07-09T03:57:42;102142.34;;;14.95;72.96
19096;BME280;9680;52.520;13.332;2022-07-09T04:00:08;102139.72;;;14.95;72.46
19096;BME280;9680;52.520;13.332;2022-07-09T04:02:40;102143.38;;;14.90;72.18
19096;BME280;9680;52.520;13.332;2022-07-09T04:05:06;102144.16;;;14.93;72.50
19096;BME280;9680;52.520;13.332;2022-07-09T04:07:32;102146.56;;;14.99;72.31
19096;BME280;9680;52.520;13.332;2022-07-09T04:09:57;102149.75;;;15.09;72.41
19096;BME280;9680;52.520;13.332;2022-07-09T04:12:23;102146.91;;;15.16;71.88
19096;BME280;9680;52.520;13.332;2022-07-09T04:14:48;102142.44;;;15.18;71.82
19096;BME280;9680;52.520;13.332;2022-07-09T04:17:14;102134.34;;;15.24;71.52
19096;BME280;9680;52.520;13.332;2022-07-09T04:19:39;102136.94;;;15.25;71.59
19096;BME280;9680;52.520;13.332;2022-07-09T04:22:05;102134.25;;;15.27;71.30
19096;BME280;9680;52.520;13.332;2022-07-09T04:24:31;102122.78;;;15.29;71.08
19096;BME280;9680;52.520;13.332;2022-07-09T04:26:56;102135.63;;;15.37;71.16
19096;BME280;9680;52.520;13.332;2022-07-09T04:29:22;102131.88;;;15.44;70.92
19096;BME280;9680;52.520;13.332;2022-07-09T04:31:47;102131.59;;;15.52;70.05
19096;BME280;9680;52.520;13.332;2022-07-09T04:34:13;102127.38;;;15.48;70.25
19096;BME280;9680;52.520;13.332;2022-07-09T04:36:38;102131.75;;;15.48;70.15
19096;BME280;9680;52.520;13.332;2022-07-09T04:39:04;102127.59;;;15.42;69.81
19096;BME280;9680;52.520;13.332;2022-07-09T04:41:30;102126.72;;;15.41;70.43
19096;BME280;9680;52.520;13.332;2022-07-09T04:43:56;102134.34;;;15.49;70.62
19096;BME280;9680;52.520;13.332;2022-07-09T04:46:21;102118.34;;;15.55;70.16
19096;BME280;9680;52.520;13.332;2022-07-09T04:48:48;102126.06;;;15.60;70.41
19096;BME280;9680;52.520;13.332;2022-07-09T04:51:14;102126.56;;;15.70;70.44
19096;BME280;9680;52.520;13.332;2022-07-09T04:53:39;102127.19;;;15.77;69.79
19096;BME280;9680;52.520;13.332;2022-07-09T04:56:05;102122.88;;;15.76;70.17
19096;BME280;9680;52.520;13.332;2022-07-09T04:58:32;102128.97;;;15.76;70.23
19096;BME280;9680;52.520;13.332;2022-07-09T05:00:58;102135.25;;;15.72;70.19
19096;BME280;9680;52.520;13.332;2022-07-09T05:03:24;102143.34;;;15.66;70.18
19096;BME280;9680;52.520;13.332;2022-07-09T05:05:53;102134.75;;;15.62;71.01
19096;BME280;9680;52.520;13.332;2022-07-09T05:08:18;102142.56;;;15.64;71.07
19096;BME280;9680;52.520;13.332;2022-07-09T05:10:44;102140.63;;;15.69;71.02
19096;BME280;9680;52.520;13.332;2022-07-09T05:13:10;102138.78;;;15.71;71.20
19096;BME280;9680;52.520;13.332;2022-07-09T05:15:36;102127.38;;;15.72;71.65
19096;BME280;9680;52.520;13.332;2022-07-09T05:18:01;102127.88;;;15.82;71.53
19096;BME280;9680;52.520;13.332;2022-07-09T05:20:27;102131.97;;;15.91;71.71
19096;BME280;9680;52.520;13.332;2022-07-09T05:22:52;102123.41;;;16.08;71.58
19096;BME280;9680;52.520;13.332;2022-07-09T05:25:18;102125.34;;;16.26;71.18
19096;BME280;9680;52.520;13.332;2022-07-09T05:27:45;102125.66;;;16.39;70.80
19096;BME280;9680;52.520;13.332;2022-07-09T05:30:12;102126.09;;;16.51;70.60
19096;BME280;9680;52.520;13.332;2022-07-09T05:32:40;102117.97;;;16.57;70.04
19096;BME280;9680;52.520;13.332;2022-07-09T05:35:06;102114.75;;;16.71;69.81
19096;BME280;9680;52.520;13.332;2022-07-09T05:37:32;102117.75;;;16.82;69.30
19096;BME280;9680;52.520;13.332;2022-07-09T05:39:58;102113.94;;;16.89;68.91
19096;BME280;9680;52.520;13.332;2022-07-09T05:42:24;102115.19;;;17.03;68.82
19096;BME280;9680;52.520;13.332;2022-07-09T05:44:49;102109.38;;;17.15;68.71
19096;BME280;9680;52.520;13.332;2022-07-09T05:47:15;102111.03;;;17.37;67.98
19096;BME280;9680;52.520;13.332;2022-07-09T05:49:41;102106.38;;;17.63;67.49
19096;BME280;9680;52.520;13.332;2022-07-09T05:52:07;102105.06;;;17.91;66.51
19096;BME280;9680;52.520;13.332;2022-07-09T05:54:32;102111.13;;;17.93;65.70
19096;BME280;9680;52.520;13.332;2022-07-09T05:56:58;102104.50;;;17.84;65.30
19096;BME280;9680;52.520;13.332;2022-07-09T05:59:23;102112.56;;;17.81;65.46
19096;BME280;9680;52.520;13.332;2022-07-09T06:01:49;102103.38;;;17.71;65.29
19096;BME280;9680;52.520;13.332;2022-07-09T06:04:15;102103.16;;;17.75;65.13
19096;BME280;9680;52.520;13.332;2022-07-09T06:06:40;102099.03;;;17.89;65.34
19096;BME280;9680;52.520;13.332;2022-07-09T06:09:06;102100.75;;;18.09;64.55
19096;BME280;9680;52.520;13.332;2022-07-09T06:11:32;102098.88;;;18.11;64.29
19096;BME280;9680;52.520;13.332;2022-07-09T06:13:57;102087.88;;;18.03;63.90
19096;BME280;9680;52.520;13.332;2022-07-09T06:16:23;102080.38;;;17.94;63.95
19096;BME280;9680;52.520;13.332;2022-07-09T06:18:48;102076.53;;;18.01;64.65
19096;BME280;9680;52.520;13.332;2022-07-09T06:21:14;102089.53;;;18.23;64.64
19096;BME280;9680;52.520;13.332;2022-07-09T06:23:40;102080.38;;;18.30;63.34
19096;BME280;9680;52.520;13.332;2022-07-09T06:26:05;102075.94;;;18.31;63.57
19096;BME280;9680;52.520;13.332;2022-07-09T06:28:31;102085.34;;;18.37;63.60
19096;BME280;9680;52.520;13.332;2022-07-09T06:30:56;102091.56;;;18.53;63.50
19096;BME280;9680;52.520;13.332;2022-07-09T06:33:22;102092.56;;;18.68;62.95
19096;BME280;9680;52.520;13.332;2022-07-09T06:35:48;102095.22;;;18.68;62.40
19096;BME280;9680;52.520;13.332;2022-07-09T06:38:13;102090.78;;;18.51;62.35
19096;BME280;9680;52.520;13.332;2022-07-09T06:40:39;102095.44;;;18.28;62.26
19096;BME280;9680;52.520;13.332;2022-07-09T06:43:04;102097.09;;;18.12;62.77
19096;BME280;9680;52.520;13.332;2022-07-09T06:45:40;102094.25;;;18.16;63.49
19096;BME280;9680;52.520;13.332;2022-07-09T06:48:05;102087.84;;;18.40;63.53
19096;BME280;9680;52.520;13.332;2022-07-09T06:50:31;102085.56;;;18.85;62.59
19096;BME280;9680;52.520;13.332;2022-07-09T06:52:57;102079.63;;;19.15;61.93
19096;BME280;9680;52.520;13.332;2022-07-09T06:55:22;102084.56;;;19.39;60.85
19096;BME280;9680;52.520;13.332;2022-07-09T06:57:48;102078.22;;;19.41;60.36
19096;BME280;9680;52.520;13.332;2022-07-09T07:00:14;102070.47;;;19.38;60.05
19096;BME280;9680;52.520;13.332;2022-07-09T07:02:39;102073.13;;;19.38;60.24
19096;BME280;9680;52.520;13.332;2022-07-09T07:05:05;102077.47;;;19.39;59.94
19096;BME280;9680;52.520;13.332;2022-07-09T07:07:31;102075.75;;;19.38;60.05
19096;BME280;9680;52.520;13.332;2022-07-09T07:09:57;102064.97;;;19.43;60.24
19096;BME280;9680;52.520;13.332;2022-07-09T07:12:22;102068.03;;;19.51;60.05
19096;BME280;9680;52.520;13.332;2022-07-09T07:14:48;102065.56;;;19.64;60.27
19096;BME280;9680;52.520;13.332;2022-07-09T07:17:13;102058.66;;;19.61;59.70
19096;BME280;9680;52.520;13.332;2022-07-09T07:19:39;102055.66;;;19.68;60.16
19096;BME280;9680;52.520;13.332;2022-07-09T07:22:05;102050.97;;;19.73;59.53
19096;BME280;9680;52.520;13.332;2022-07-09T07:24:31;102055.25;;;19.59;59.68
19096;BME280;9680;52.520;13.332;2022-07-09T07:26:57;102062.72;;;19.35;58.99
19096;BME280;9680;52.520;13.332;2022-07-09T07:29:23;102063.56;;;19.19;60.59
19096;BME280;9680;52.520;13.332;2022-07-09T07:31:49;102060.59;;;19.42;60.83
19096;BME280;9680;52.520;13.332;2022-07-09T07:34:15;102061.97;;;19.81;60.05
19096;BME280;9680;52.520;13.332;2022-07-09T07:36:41;102060.28;;;19.96;58.55
19096;BME280;9680;52.520;13.332;2022-07-09T07:39:06;102065.22;;;20.02;58.76
19096;BME280;9680;52.520;13.332;2022-07-09T07:41:32;102063.25;;;20.06;57.78
19096;BME280;9680;52.520;13.332;2022-07-09T07:43:57;102064.72;;;19.96;58.49
19096;BME280;9680;52.520;13.332;2022-07-09T07:46:23;102056.56;;;20.15;58.62
19096;BME280;9680;52.520;13.332;2022-07-09T07:48:49;102056.22;;;20.21;57.26
19096;BME280;9680;52.520;13.332;2022-07-09T07:51:16;102054.97;;;20.12;57.75
19096;BME280;9680;52.520;13.332;2022-07-09T07:53:41;102063.47;;;20.17;57.63
19096;BME280;9680;52.520;13.332;2022-07-09T07:56:08;102063.63;;;20.00;57.73
19096;BME280;9680;52.520;13.332;2022-07-09T07:58:34;102063.19;;;19.75;58.35
19096;BME280;9680;52.520;13.332;2022-07-09T08:01:00;102059.34;;;19.65;59.11
19096;BME280;9680;52.520;13.332;2022-07-09T08:03:26;102048.06;;;19.61;59.54
19096;BME280;9680;52.520;13.332;2022-07-09T08:05:51;102050.13;;;19.56;59.74
19096;BME280;9680;52.520;13.332;2022-07-09T08:08:17;102052.69;;;19.58;59.82
19096;BME280;9680;52.520;13.332;2022-07-09T08:10:44;102044.44;;;19.64;60.12
19096;BME280;9680;52.520;13.332;2022-07-09T08:13:10;102045.34;;;19.79;59.95
19096;BME280;9680;52.520;13.332;2022-07-09T08:15:37;102041.50;;;20.01;59.75
19096;BME280;9680;52.520;13.332;2022-07-09T08:18:03;102033.34;;;20.20;59.47
19096;BME280;9680;52.520;13.332;2022-07-09T08:20:29;102030.28;;;20.42;58.98
19096;BME280;9680;52.520;13.332;2022-07-09T08:22:54;102027.38;;;20.47;58.06
19096;BME280;9680;52.520;13.332;2022-07-09T08:25:20;102032.59;;;20.63;58.12
19096;BME280;9680;52.520;13.332;2022-07-09T08:27:45;102026.94;;;20.69;57.45
19096;BME280;9680;52.520;13.332;2022-07-09T08:30:11;102024.00;;;20.74;57.67
19096;BME280;9680;52.520;13.332;2022-07-09T08:32:36;102026.09;;;20.83;56.98
19096;BME280;9680;52.520;13.332;2022-07-09T08:35:04;102020.47;;;20.89;57.39
19096;BME280;9680;52.520;13.332;2022-07-09T08:37:30;102018.06;;;20.99;56.52
19096;BME280;9680;52.520;13.332;2022-07-09T08:39:55;102020.81;;;21.12;56.35
19096;BME280;9680;52.520;13.332;2022-07-09T08:42:21;102023.84;;;21.20;56.40
19096;BME280;9680;52.520;13.332;2022-07-09T08:44:47;102024.56;;;21.37;55.98
19096;BME280;9680;52.520;13.332;2022-07-09T08:47:14;102020.81;;;21.68;55.90
19096;BME280;9680;52.520;13.332;2022-07-09T08:49:41;102016.50;;;22.08;54.90
19096;BME280;9680;52.520;13.332;2022-07-09T08:52:07;102015.47;;;22.36;54.03
19096;BME280;9680;52.520;13.332;2022-07-09T08:54:34;102007.66;;;22.48;53.17
19096;BME280;9680;52.520;13.332;2022-07-09T08:57:04;102009.88;;;22.54;53.08
19096;BME280;9680;52.520;13.332;2022-07-09T08:59:30;102012.91;;;22.35;52.76
19096;BME280;9680;52.520;13.332;2022-07-09T09:01:56;102012.22;;;22.05;53.26
19096;BME280;9680;52.520;13.332;2022-07-09T09:04:22;102016.56;;;21.66;54.10
19096;BME280;9680;52.520;13.332;2022-07-09T09:06:49;102011.69;;;21.31;55.26
19096;BME280;9680;52.520;13.332;2022-07-09T09:09:19;102017.19;;;20.70;55.78
19096;BME280;9680;52.520;13.332;2022-07-09T09:11:48;102025.41;;;20.20;57.33
19096;BME280;9680;52.520;13.332;2022-07-09T09:14:21;102023.75;;;20.03;58.69
19096;BME280;9680;52.520;13.332;2022-07-09T09:16:47;102024.00;;;19.98;59.31
19096;BME280;9680;52.520;13.332;2022-07-09T09:19:13;102028.19;;;20.02;59.74
19096;BME280;9680;52.520;13.332;2022-07-09T09:21:39;102029.41;;;19.97;59.96
19096;BME280;9680;52.520;13.332;2022-07-09T09:24:05;102033.22;;;20.07;60.82
19096;BME280;9680;52.520;13.332;2022-07-09T09:26:30;102030.75;;;19.24;62.60
19096;BME280;9680;52.520;13.332;2022-07-09T09:29:03;102043.19;;;18.53;66.92
19096;BME280;9680;52.520;13.332;2022-07-09T09:31:36;102055.31;;;18.22;69.51
19096;BME280;9680;52.520;13.332;2022-07-09T09:34:14;102062.06;;;17.90;71.43
19096;BME280;9680;52.520;13.332;2022-07-09T09:41:33;102049.44;;;17.78;75.50
19096;BME280;9680;52.520;13.332;2022-07-09T09:44:04;102043.81;;;17.86;76.19
19096;BME280;9680;52.520;13.332;2022-07-09T09:46:32;102042.50;;;18.14;76.66
19096;BME280;9680;52.520;13.332;2022-07-09T09:48:59;102048.88;;;18.45;76.22
19096;BME280;9680;52.520;13.332;2022-07-09T09:51:28;102040.34;;;18.57;75.56
19096;BME280;9680;52.520;13.332;2022-07-09T09:53:56;102033.72;;;18.84;75.67
19096;BME280;9680;52.520;13.332;2022-07-09T09:56:24;102024.88;;;19.18;74.69
19096;BME280;9680;52.520;13.332;2022-07-09T09:58:50;102021.22;;;19.53;73.87
19096;BME280;9680;52.520;13.332;2022-07-09T10:01:16;102018.78;;;20.13;72.76
19096;BME280;9680;52.520;13.332;2022-07-09T10:03:43;102010.50;;;20.64;71.06
19096;BME280;9680;52.520;13.332;2022-07-09T10:06:08;102002.72;;;21.19;69.12
19096;BME280;9680;52.520;13.332;2022-07-09T10:08:34;102001.22;;;21.71;66.95
19096;BME280;9680;52.520;13.332;2022-07-09T10:11:00;101999.91;;;22.04;65.38
19096;BME280;9680;52.520;13.332;2022-07-09T10:13:26;101995.06;;;22.37;63.86
19096;BME280;9680;52.520;13.332;2022-07-09T10:15:54;101995.00;;;22.51;62.83
19096;BME280;9680;52.520;13.332;2022-07-09T10:18:20;101996.69;;;22.39;62.07
19096;BME280;9680;52.520;13.332;2022-07-09T10:20:45;101995.91;;;22.24;61.91
19096;BME280;9680;52.520;13.332;2022-07-09T10:23:21;101979.41;;;22.47;61.33
19096;BME280;9680;52.520;13.332;2022-07-09T10:25:50;101984.91;;;22.69;59.44
19096;BME280;9680;52.520;13.332;2022-07-09T10:28:19;101971.69;;;22.94;59.28
19096;BME280;9680;52.520;13.332;2022-07-09T10:30:46;101977.72;;;23.22;58.01
19096;BME280;9680;52.520;13.332;2022-07-09T10:35:44;101965.69;;;23.29;57.82
19096;BME280;9680;52.520;13.332;2022-07-09T10:38:10;101965.78;;;23.15;56.69
19096;BME280;9680;52.520;13.332;2022-07-09T10:40:44;101963.66;;;22.82;56.36
19096;BME280;9680;52.520;13.332;2022-07-09T10:43:10;101963.34;;;22.35;56.79
19096;BME280;9680;52.520;13.332;2022-07-09T10:45:42;101959.59;;;21.99;57.32
19096;BME280;9680;52.520;13.332;2022-07-09T10:48:09;101955.75;;;22.03;57.73
19096;BME280;9680;52.520;13.332;2022-07-09T10:50:43;101952.16;;;22.04;56.82
19096;BME280;9680;52.520;13.332;2022-07-09T10:53:11;101945.38;;;22.00;57.12
19096;BME280;9680;52.520;13.332;2022-07-09T10:55:37;101940.50;;;22.20;56.56
19096;BME280;9680;52.520;13.332;2022-07-09T10:58:16;101931.19;;;22.66;56.01
19096;BME280;9680;52.520;13.332;2022-07-09T11:00:41;101924.97;;;22.91;54.98
19096;BME280;9680;52.520;13.332;2022-07-09T11:03:07;101928.59;;;23.15;54.13
19096;BME280;9680;52.520;13.332;2022-07-09T11:05:34;101923.78;;;23.33;52.90
19096;BME280;9680;52.520;13.332;2022-07-09T11:08:09;101927.06;;;23.36;52.29
19096;BME280;9680;52.520;13.332;2022-07-09T11:10:39;101930.69;;;23.22;51.16
19096;BME280;9680;52.520;13.332;2022-07-09T11:13:06;101931.03;;;22.93;52.06
19096;BME280;9680;52.520;13.332;2022-07-09T11:15:33;101919.09;;;22.99;51.50
19096;BME280;9680;52.520;13.332;2022-07-09T11:18:05;101913.88;;;23.35;49.42
19096;BME280;9680;52.520;13.332;2022-07-09T11:20:37;101914.25;;;23.17;49.80
19096;BME280;9680;52.520;13.332;2022-07-09T11:23:03;101914.69;;;23.11;49.80
19096;BME280;9680;52.520;13.332;2022-07-09T11:25:29;101914.09;;;23.32;49.38
19096;BME280;9680;52.520;13.332;2022-07-09T11:27:59;101909.50;;;23.58;49.29
19096;BME280;9680;52.520;13.332;2022-07-09T11:30:26;101907.72;;;24.06;48.47
19096;BME280;9680;52.520;13.332;2022-07-09T11:32:52;101908.69;;;24.16;46.85
19096;BME280;9680;52.520;13.332;2022-07-09T11:35:25;101908.94;;;24.24;46.37
19096;BME280;9680;52.520;13.332;2022-07-09T11:37:51;101896.59;;;24.23;46.27
19096;BME280;9680;52.520;13.332;2022-07-09T11:40:18;101889.09;;;24.40;46.30
19096;BME280;9680;52.520;13.332;2022-07-09T11:42:44;101897.94;;;24.40;46.16
19096;BME280;9680;52.520;13.332;2022-07-09T11:45:09;101887.78;;;24.23;46.35
19096;BME280;9680;52.520;13.332;2022-07-09T11:47:37;101882.44;;;24.11;46.92
19096;BME280;9680;52.520;13.332;2022-07-09T11:50:15;101885.34;;;24.08;47.32
19096;BME280;9680;52.520;13.332;2022-07-09T11:52:50;101886.41;;;23.94;46.81
19096;BME280;9680;52.520;13.332;2022-07-09T11:55:18;101889.91;;;23.59;47.27
19096;BME280;9680;52.520;13.332;2022-07-09T11:58:12;101890.00;;;23.46;48.31
19096;BME280;9680;52.520;13.332;2022-07-09T12:00:40;101880.88;;;23.62;48.21
19096;BME280;9680;52.520;13.332;2022-07-09T12:03:06;101875.78;;;23.59;47.16
19096;BME280;9680;52.520;13.332;2022-07-09T12:05:34;101869.84;;;23.55;48.08
19096;BME280;9680;52.520;13.332;2022-07-09T12:08:05;101877.88;;;23.78;48.47
19096;BME280;9680;52.520;13.332;2022-07-09T12:10:36;101874.63;;;23.74;48.14
19096;BME280;9680;52.520;13.332;2022-07-09T12:13:03;101877.81;;;23.55;48.38
19096;BME280;9680;52.520;13.332;2022-07-09T12:15:29;101873.00;;;23.24;48.83
19096;BME280;9680;52.520;13.332;2022-07-09T12:17:58;101869.19;;;22.91;49.08
19096;BME280;9680;52.520;13.332;2022-07-09T12:20:26;101869.25;;;22.65;49.90
19096;BME280;9680;52.520;13.332;2022-07-09T12:22:52;101869.81;;;22.58;50.36
19096;BME280;9680;52.520;13.332;2022-07-09T12:25:18;101861.63;;;22.61;50.56
19096;BME280;9680;52.520;13.332;2022-07-09T12:27:45;101858.19;;;22.72;50.46
19096;BME280;9680;52.520;13.332;2022-07-09T12:30:11;101857.97;;;22.99;50.25
19096;BME280;9680;52.520;13.332;2022-07-09T12:32:38;101858.22;;;22.96;49.48
19096;BME280;9680;52.520;13.332;2022-07-09T12:35:05;101867.56;;;22.51;49.63
19096;BME280;9680;52.520;13.332;2022-07-09T12:37:33;101874.47;;;21.76;56.47
19096;BME280;9680;52.520;13.332;2022-07-09T12:40:00;101897.06;;;19.37;77.38
19096;BME280;9680;52.520;13.332;2022-07-09T12:42:26;101891.69;;;18.07;90.63
19096;BME280;9680;52.520;13.332;2022-07-09T12:44:52;101881.59;;;17.98;97.47
19096;BME280;9680;52.520;13.332;2022-07-09T12:47:18;101885.38;;;17.92;99.32
19096;BME280;9680;52.520;13.332;2022-07-09T12:49:44;101889.94;;;17.88;99.58
19096;BME280;9680;52.520;13.332;2022-07-09T12:52:10;101890.56;;;17.58;98.92
19096;BME280;9680;52.520;13.332;2022-07-09T12:54:35;101891.94;;;17.66;100.00